Putney, Vermont
Current Conditions -  °F | °C
As of 5:55 AM on Friday 21 Nov 2014 (Local Time) from KEEN Reporting Station
Clear Clear  
Wind Chill: 16°   Ceiling: Unl
Heat Index: 23°   Visibility: 10mi
Dew Point: 10°   Wind: 6mph
Humidity: 59%   Direction: 260°W
Pressure: 29.99"   Gusts: NA
Location:  42.97°N, 72.52°W
Report Text: KEEN 211055Z AUTO 26005KT 10SM CLR M05/M12 A2999 RMK AO1
Loading
Personal Weather Stations






























Interactive Weather Map New forecast layout! Learn more

10-Day Weather Forecast

Advertisements
Track Severe Weather on mobile